Time;durP1;ratioP1;P1;durP2;ratioP2;P2;SDS_P1;SDS_P2;PMS_P1;PMS_P2;Temp;Humidity;BMP_temperature;BMP_pressure;BME280_temperature;BME280_humidity;BME280_pressure;Samples;Min_cycle;Max_cycle;Signal;HPM_P1;HPM_P2
2021/11/13 00:01:09;;;;;;;41.40;26.75;;;;;;;6.33;62.44;94840.86;827647;71;29714;-78
2021/11/13 00:16:10;;;;;;;27.65;18.92;;;;;;;6.25;62.46;94846.55;827548;71;28320;-80
2021/11/13 00:46:13;;;;;;;26.70;16.95;;;;;;;6.09;62.43;94840.45;827544;71;31064;-77
2021/11/13 01:01:09;;;;;;;23.12;14.43;;;;;;;6.06;62.72;94838.33;828381;71;28717;-77
2021/11/13 01:16:10;;;;;;;22.25;16.85;;;;;;;6.02;63.41;94830.22;834020;71;29159;-78
2021/11/13 01:31:10;;;;;;;22.15;14.98;;;;;;;6.04;63.42;94834.66;827576;71;29414;-79
2021/11/13 01:46:11;;;;;;;21.27;15.83;;;;;;;6.07;63.27;94825.59;828966;70;29532;-78
2021/11/13 02:01:10;;;;;;;22.48;15.95;;;;;;;6.05;63.02;94808.90;833590;71;29290;-78
2021/11/13 02:16:09;;;;;;;19.87;15.50;;;;;;;6.04;62.55;94816.95;828682;71;28682;-78
2021/11/13 02:31:11;;;;;;;25.35;16.05;;;;;;;5.96;62.42;94814.30;827944;71;28699;-78
2021/11/13 02:46:10;;;;;;;22.50;14.63;;;;;;;5.64;62.85;94800.77;833899;71;28772;-79
2021/11/13 03:16:10;;;;;;;31.77;17.37;;;;;;;5.41;64.20;94827.39;828078;71;28740;-78
2021/11/13 03:31:08;;;;;;;26.48;18.10;;;;;;;5.34;64.75;94823.41;829580;71;28700;-79
2021/11/13 03:46:10;;;;;;;24.07;17.12;;;;;;;5.31;64.61;94831.69;829608;71;29099;-79
2021/11/13 04:01:08;;;;;;;26.62;18.80;;;;;;;5.28;64.75;94829.08;833727;71;30267;-80
2021/11/13 04:16:14;;;;;;;29.02;19.67;;;;;;;5.22;65.22;94832.66;826695;71;33239;-78
2021/11/13 04:31:15;;;;;;;26.73;16.52;;;;;;;5.07;65.11;94824.19;826906;71;32724;-79
2021/11/13 04:46:09;;;;;;;21.97;16.07;;;;;;;4.92;65.59;94835.20;833341;71;31122;-78
2021/11/13 05:01:08;;;;;;;17.50;13.50;;;;;;;4.84;65.47;94846.02;828318;71;29416;-78
2021/11/13 05:16:12;;;;;;;19.05;14.23;;;;;;;4.86;65.82;94848.39;827834;71;32121;-78
2021/11/13 05:31:09;;;;;;;23.67;13.70;;;;;;;4.77;65.39;94851.41;827419;71;30457;-79
2021/11/13 05:46:11;;;;;;;22.82;14.70;;;;;;;6.59;61.71;94866.03;827781;71;31435;-80
2021/11/13 06:01:15;;;;;;;22.87;17.25;;;;;;;9.63;53.62;94875.35;826845;71;32836;-79
2021/11/13 06:16:15;;;;;;;42.60;30.65;;;;;;;12.01;47.21;94874.16;834508;71;33023;-80
2021/11/13 06:31:14;;;;;;;43.80;31.68;;;;;;;13.76;43.54;94880.93;799883;74;32886;-81
2021/11/13 06:46:14;;;;;;;54.50;40.10;;;;;;;15.08;40.91;94869.29;818435;71;32794;-83
2021/11/13 07:01:51;;;;;;;41.70;31.75;;;;;;;13.95;39.81;94883.94;807727;72;32901;-78
2021/11/13 07:16:17;;;;;;;39.78;30.48;;;;;;;13.71;41.14;94880.28;833459;71;33552;-78
2021/11/13 07:31:18;;;;;;;39.13;29.87;;;;;;;14.78;39.50;94879.58;829739;71;32763;-86
2021/11/13 07:46:08;;;;;;;22.90;18.02;;;;;;;16.30;36.78;94856.16;822116;71;29679;-86
2021/11/13 08:16:16;;;;;;;21.17;18.02;;;;;;;16.89;34.42;94872.25;794076;73;32992;-83
2021/11/13 08:31:09;;;;;;;17.12;15.30;;;;;;;17.27;33.86;94872.76;830363;71;29668;-87
2021/11/13 08:46:16;;;;;;;18.87;15.35;;;;;;;18.11;32.62;94860.89;828683;71;32778;-81
2021/11/13 09:16:12;;;;;;;22.87;19.87;;;;;;;19.83;30.97;94838.18;826221;71;30303;-83
2021/11/13 09:31:10;;;;;;;20.65;18.45;;;;;;;20.31;30.14;94821.78;828190;71;29732;-82
2021/11/13 09:46:13;;;;;;;25.45;22.85;;;;;;;20.72;28.99;94807.23;829656;70;32615;-79
2021/11/13 10:01:41;;;;;;;27.55;24.65;;;;;;;20.38;29.22;94785.99;841264;70;32617;-78
2021/11/13 10:16:20;;;;;;;21.10;17.37;;;;;;;21.31;42.66;94768.70;825306;71;29854;-86
2021/11/13 10:46:26;;;;;;;29.53;23.63;;;;;;;23.82;30.67;94735.38;833998;71;31446;-85
2021/11/13 11:01:32;;;;;;;26.60;23.90;;;;;;;25.16;26.80;94719.23;827684;71;30338;-77
2021/11/13 11:16:51;;;;;;;30.23;27.23;;;;;;;23.29;26.77;94704.11;826830;71;32591;-78
2021/11/13 11:31:51;;;;;;;32.30;28.60;;;;;;;22.47;27.28;94695.70;829166;71;33000;-77
2021/11/13 11:46:11;;;;;;;31.07;27.23;;;;;;;21.43;27.82;94640.44;827612;71;31968;-76
2021/11/13 12:01:26;;;;;;;33.73;29.13;;;;;;;20.50;28.07;94664.61;828939;71;30372;-82
2021/11/13 12:16:11;;;;;;;25.15;22.27;;;;;;;19.76;27.60;94653.70;827815;71;31168;-77
2021/11/13 12:31:38;;;;;;;29.92;25.08;;;;;;;19.25;28.89;94634.30;833707;71;30369;-76
2021/11/13 12:46:47;;;;;;;23.55;21.12;;;;;;;18.81;28.67;94623.01;831608;71;32769;-80
2021/11/13 13:01:13;;;;;;;21.82;18.85;;;;;;;18.14;29.15;94628.39;834464;71;31522;-76
2021/11/13 13:16:10;;;;;;;21.23;18.90;;;;;;;17.85;29.57;94624.84;833127;71;29742;-78
2021/11/13 13:31:16;;;;;;;21.80;19.50;;;;;;;17.26;30.22;94615.28;819366;71;32910;-78
2021/11/13 13:46:36;;;;;;;;;;;;;;;;;;;;;
2021/11/13 14:01:21;;;;;;;26.45;21.23;;;;;;;15.75;32.82;94593.83;826572;71;32223;-76
2021/11/13 14:16:09;;;;;;;25.20;19.85;;;;;;;15.18;36.70;94581.66;827485;71;29266;-79
2021/11/13 14:31:36;;;;;;;31.17;23.42;;;;;;;14.72;38.41;94588.92;826614;71;31764;-79
2021/11/13 14:46:20;;;;;;;40.65;27.52;;;;;;;14.28;40.07;94590.75;827598;71;31779;-80
2021/11/13 15:16:16;;;;;;;33.18;24.12;;;;;;;13.13;42.90;94595.84;814942;70;32724;-78
2021/11/13 15:31:26;;;;;;;38.75;24.87;;;;;;;12.66;44.13;94609.84;788775;74;32065;-81
2021/11/13 15:46:11;;;;;;;47.60;30.08;;;;;;;12.31;45.87;94610.31;826572;71;29548;-79
2021/11/13 16:01:15;;;;;;;58.25;38.63;;;;;;;11.91;47.55;94623.20;827524;71;32192;-81
2021/11/13 16:16:15;;;;;;;40.95;29.30;;;;;;;11.57;48.27;94635.36;827550;71;31761;-83
2021/11/13 16:31:11;;;;;;;63.48;38.60;;;;;;;11.28;49.94;94650.05;835947;69;30435;-80
2021/11/13 16:46:18;;;;;;;60.30;35.00;;;;;;;11.01;50.97;94652.83;827104;71;31758;-84
2021/11/13 17:01:19;;;;;;;52.55;32.58;;;;;;;10.80;51.76;94666.77;828473;71;31750;-82
2021/11/13 17:16:15;;;;;;;71.75;42.50;;;;;;;10.53;52.65;94675.27;826690;71;32313;-82
2021/11/13 17:31:21;;;;;;;68.12;40.98;;;;;;;10.28;52.40;94688.93;818777;71;31906;-81
2021/11/13 17:46:30;;;;;;;67.37;44.25;;;;;;;10.09;52.92;94688.09;824855;71;31857;-81
2021/11/13 18:01:12;;;;;;;67.22;41.80;;;;;;;9.93;53.91;94692.70;829974;70;28534;-79
2021/11/13 18:16:10;;;;;;;61.10;40.55;;;;;;;9.71;54.71;94695.30;827721;71;28888;-82
2021/11/13 18:31:10;;;;;;;62.08;42.10;;;;;;;9.52;55.45;94697.03;828434;71;29397;-78
2021/11/13 18:46:09;;;;;;;58.75;37.48;;;;;;;9.30;55.90;94698.77;827662;71;29165;-81
2021/11/13 19:01:13;;;;;;;58.65;34.15;;;;;;;9.07;56.47;94717.28;826505;71;29787;-80
2021/11/13 19:16:33;;;;;;;51.63;35.40;;;;;;;8.92;57.54;94722.06;815339;71;32384;-81
2021/11/13 19:31:11;;;;;;;60.03;37.78;;;;;;;8.77;57.90;94733.41;818986;71;30187;-81
2021/11/13 19:46:30;;;;;;;73.12;48.40;;;;;;;8.60;58.10;94745.53;818515;70;31987;-84
2021/11/13 20:01:36;;;;;;;80.05;52.53;;;;;;;8.37;58.32;94745.56;829460;71;31718;-82
2021/11/13 20:16:16;;;;;;;72.53;47.03;;;;;;;8.22;58.87;94738.56;833373;71;31818;-80
2021/11/13 20:31:16;;;;;;;73.22;47.58;;;;;;;8.07;59.61;94742.52;823051;70;31940;-79
2021/11/13 20:46:10;;;;;;;73.90;46.35;;;;;;;7.92;60.19;94741.50;820150;71;29286;-81
2021/11/13 21:16:08;;;;;;;73.57;46.70;;;;;;;7.58;61.52;94743.39;827867;71;28822;-80
2021/11/13 21:31:10;;;;;;;70.70;45.65;;;;;;;7.51;61.51;94759.05;827516;71;29765;-79
2021/11/13 21:46:21;;;;;;;65.50;43.55;;;;;;;7.38;62.15;94757.22;828831;71;31801;-81
2021/11/13 22:01:09;;;;;;;59.53;40.00;;;;;;;7.28;63.24;94769.45;829504;71;29194;-80
2021/11/13 22:16:10;;;;;;;57.93;40.80;;;;;;;7.17;63.80;94768.67;827971;71;28821;-81
2021/11/13 22:31:08;;;;;;;58.42;38.25;;;;;;;7.10;63.99;94767.63;827800;71;29119;-82
2021/11/13 22:46:10;;;;;;;57.30;37.20;;;;;;;6.93;64.00;94762.61;827556;71;30281;-82
2021/11/13 23:01:28;;;;;;;64.97;37.10;;;;;;;6.78;64.19;94760.76;827793;71;30339;-81
2021/11/13 23:16:15;;;;;;;53.85;35.80;;;;;;;6.61;64.50;94756.28;830123;71;31839;-79
2021/11/13 23:31:11;;;;;;;58.68;35.92;;;;;;;6.51;64.99;94753.12;833707;71;31444;-80
2021/11/13 23:46:08;;;;;;;54.35;35.23;;;;;;;6.37;65.71;94744.20;827815;71;29665;-79
